Time;durP1;ratioP1;P1;durP2;ratioP2;P2;SDS_P1;SDS_P2;PMS_P1;PMS_P2;Temp;Humidity;BMP_temperature;BMP_pressure;BME280_temperature;BME280_humidity;BME280_pressure;Samples;Min_cycle;Max_cycle;Signal;HPM_P1;HPM_P2
2022/06/02 00:01:27;;;;;;;24.35;18.88;;;;;;;9.40;85.00;101869.78;5071584;28;20024;-58
2022/06/02 00:03:54;;;;;;;26.63;20.05;;;;;;;9.36;84.92;101871.41;5071026;28;20074;-57
2022/06/02 00:06:37;;;;;;;24.92;18.67;;;;;;;9.33;85.66;101870.03;5070624;28;20035;-58
2022/06/02 00:09:29;;;;;;;24.35;18.52;;;;;;;9.31;85.49;101874.19;5070879;28;20032;-57
2022/06/02 00:11:57;;;;;;;26.60;19.50;;;;;;;9.28;85.45;101880.25;5071374;28;20032;-56
2022/06/02 00:14:40;;;;;;;25.98;20.08;;;;;;;9.24;85.28;101884.66;5071543;28;20047;-57
2022/06/02 00:17:12;;;;;;;25.50;19.87;;;;;;;9.19;85.73;101878.00;5070721;28;20374;-53
2022/06/02 00:19:41;;;;;;;26.33;19.80;;;;;;;9.14;85.49;101879.94;5070700;28;20336;-56
2022/06/02 00:22:35;;;;;;;26.50;19.67;;;;;;;9.09;85.47;101877.97;5070590;28;20028;-56
2022/06/02 00:25:05;;;;;;;;;;;;;;;9.08;83.09;101881.84;5059815;28;20071;-56
2022/06/02 00:27:49;;;;;;;25.10;19.80;;;;;;;8.98;85.86;101881.78;5071107;28;19939;-56
2022/06/02 00:30:28;;;;;;;26.85;20.50;;;;;;;8.88;86.27;101879.84;5071810;28;20102;-57
2022/06/02 00:33:28;;;;;;;26.65;20.20;;;;;;;8.90;86.37;101891.44;5071200;28;20097;-56
2022/06/02 00:36:05;;;;;;;28.23;20.50;;;;;;;8.81;86.92;101879.25;5071287;28;20044;-56
2022/06/02 00:38:36;;;;;;;27.83;20.52;;;;;;;8.87;86.80;101889.22;5070954;28;20040;-55
2022/06/02 00:41:16;;;;;;;29.70;21.48;;;;;;;8.76;87.34;101870.94;5070438;28;20111;-54
2022/06/02 00:43:50;;;;;;;28.27;22.17;;;;;;;8.85;87.53;101897.75;5052830;28;20024;-55
2022/06/02 00:46:45;;;;;;;28.15;21.75;;;;;;;8.79;87.50;101886.97;5071073;28;20428;-55
2022/06/02 00:49:29;;;;;;;27.92;21.30;;;;;;;8.77;87.58;101897.44;5075651;28;20127;-54
2022/06/02 00:52:04;;;;;;;26.08;20.23;;;;;;;8.71;87.60;101891.06;5074879;28;20044;-53
2022/06/02 00:57:35;;;;;;;27.65;21.13;;;;;;;8.59;88.15;101905.06;5075394;28;20136;-57
2022/06/02 01:00:20;;;;;;;27.45;21.55;;;;;;;8.49;88.91;101897.56;5074737;28;20086;-57
2022/06/02 01:02:53;;;;;;;29.10;21.90;;;;;;;8.33;89.50;101891.09;5074966;28;20380;-58
2022/06/02 01:05:56;;;;;;;28.10;21.77;;;;;;;8.30;89.85;101899.06;5056558;28;20107;-56
2022/06/02 01:08:45;;;;;;;27.67;21.27;;;;;;;8.24;89.49;101899.00;5074860;28;20101;-55
2022/06/02 01:11:28;;;;;;;27.33;21.30;;;;;;;8.21;89.89;101893.19;5074530;28;20067;-55
2022/06/02 01:14:23;;;;;;;27.20;20.70;;;;;;;8.21;89.63;101893.19;5074892;28;20134;-56
2022/06/02 01:17:07;;;;;;;28.13;22.10;;;;;;;8.18;90.04;101902.84;5074418;28;20090;-56
2022/06/02 01:19:57;;;;;;;28.40;22.10;;;;;;;8.15;90.44;101886.00;5073592;28;20032;-56
2022/06/02 01:22:33;;;;;;;28.92;22.75;;;;;;;8.09;90.41;101893.38;5074302;28;20032;-56
2022/06/02 01:25:14;;;;;;;29.77;21.83;;;;;;;8.09;90.63;101893.38;5074718;28;20029;-55
2022/06/02 01:27:55;;;;;;;29.77;22.95;;;;;;;8.03;91.01;101888.94;5074371;28;20087;-55
2022/06/02 01:30:38;;;;;;;31.52;24.48;;;;;;;8.05;91.27;101895.00;5074095;28;20349;-57
2022/06/02 01:33:31;;;;;;;30.67;23.23;;;;;;;8.02;91.21;101895.56;5073845;28;20032;-57
2022/06/02 01:36:04;;;;;;;29.17;22.42;;;;;;;7.95;90.70;101896.56;5073978;28;20039;-56
2022/06/02 01:38:52;;;;;;;30.53;22.63;;;;;;;7.92;90.95;101894.38;5073900;28;20059;-56
2022/06/02 01:41:46;;;;;;;31.35;23.85;;;;;;;7.88;91.69;101893.22;5073938;28;20032;-55
2022/06/02 01:44:15;;;;;;;;;;;;;;;7.90;88.81;101896.53;5074852;28;20119;-57
2022/06/02 01:46:40;;;;;;;29.80;22.63;;;;;;;7.89;91.05;101896.78;5055266;28;19912;-54
2022/06/02 01:49:11;;;;;;;31.67;23.88;;;;;;;7.86;91.78;101895.41;5073595;28;20185;-55
2022/06/02 01:52:16;;;;;;;31.58;24.35;;;;;;;7.88;91.82;101897.91;5073537;28;20044;-56
2022/06/02 01:55:04;;;;;;;32.88;24.00;;;;;;;7.76;91.94;101893.41;5055780;28;20036;-55
2022/06/02 01:58:08;;;;;;;32.25;23.88;;;;;;;7.80;91.83;101896.47;5073615;28;20491;-55
2022/06/02 02:00:34;;;;;;;33.05;25.42;;;;;;;7.74;91.97;101889.25;5074238;28;20048;-54
2022/06/02 02:03:10;;;;;;;32.80;25.42;;;;;;;7.76;92.89;101890.63;5073697;28;20035;-56
2022/06/02 02:06:00;;;;;;;34.42;25.75;;;;;;;7.76;93.32;101893.41;5073556;28;20181;-54
2022/06/02 02:08:28;;;;;;;30.60;24.13;;;;;;;7.71;92.52;101884.25;5073416;28;20032;-55
2022/06/02 02:11:27;;;;;;;32.33;23.80;;;;;;;7.65;92.32;101889.69;5073564;28;20059;-54
2022/06/02 02:14:06;;;;;;;34.50;24.42;;;;;;;7.59;92.16;101890.75;5073449;28;20063;-56
2022/06/02 02:17:02;;;;;;;32.60;25.15;;;;;;;7.58;93.22;101889.09;5073564;28;20425;-55
2022/06/02 02:19:51;;;;;;;32.78;25.42;;;;;;;7.54;93.66;101898.13;5072718;28;20029;-56
2022/06/02 02:22:44;;;;;;;35.85;25.25;;;;;;;7.44;93.81;101887.84;5073534;28;20188;-56
2022/06/02 02:25:28;;;;;;;34.03;25.25;;;;;;;7.51;94.51;101905.00;5082656;22;20031;-49
2022/06/02 02:28:12;;;;;;;32.42;25.23;;;;;;;7.45;93.79;101898.59;5014560;28;20073;-49
2022/06/02 02:30:43;;;;;;;32.35;24.17;;;;;;;7.48;94.04;101902.75;5014608;28;20038;-51
2022/06/02 02:33:30;;;;;;;32.83;25.58;;;;;;;7.45;94.81;101897.78;5014854;28;20037;-53
2022/06/02 02:36:04;;;;;;;34.30;25.80;;;;;;;7.40;94.83;101903.22;5014281;28;20049;-53
2022/06/02 02:38:42;;;;;;;32.70;25.08;;;;;;;7.45;94.49;101903.28;5014455;28;20034;-52
2022/06/02 02:41:15;;;;;;;32.53;23.95;;;;;;;7.37;94.42;101904.56;5014392;28;20038;-49
2022/06/02 02:43:53;;;;;;;30.73;23.63;;;;;;;7.36;94.50;101900.16;5014735;28;20084;-50
2022/06/02 02:46:31;;;;;;;30.55;23.45;;;;;;;7.31;94.11;101917.44;5014467;28;20026;-50
2022/06/02 02:49:11;;;;;;;31.20;22.85;;;;;;;7.27;94.28;101910.81;5014756;28;20092;-51
2022/06/02 02:51:53;;;;;;;29.95;22.45;;;;;;;7.20;94.43;101909.31;5014403;28;20156;-52
2022/06/02 02:54:24;;;;;;;29.95;22.38;;;;;;;7.20;94.23;101923.09;5013845;28;20105;-50
2022/06/02 02:57:05;;;;;;;31.33;22.75;;;;;;;7.14;94.31;101923.00;5014171;28;20030;-51
2022/06/02 02:59:31;;;;;;;29.48;20.95;;;;;;;7.09;94.26;101922.09;5014076;28;20062;-54
2022/06/02 03:02:02;;;;;;;28.85;21.48;;;;;;;7.03;94.22;101926.75;5014130;28;20061;-52
2022/06/02 03:04:55;;;;;;;27.98;21.55;;;;;;;7.02;94.95;101925.91;5014325;28;20088;-53
2022/06/02 03:07:21;;;;;;;28.92;21.67;;;;;;;7.01;94.25;101923.41;5014295;28;20030;-54
2022/06/02 03:09:57;;;;;;;27.92;20.27;;;;;;;7.00;94.84;101927.25;5010717;28;20078;-54
2022/06/02 03:12:41;;;;;;;28.17;21.13;;;;;;;6.96;94.74;101926.06;5013050;28;20030;-50
2022/06/02 03:15:30;;;;;;;27.40;20.80;;;;;;;6.95;95.06;101933.50;5012730;28;20038;-52
2022/06/02 03:18:16;;;;;;;28.63;20.52;;;;;;;6.92;94.76;101934.00;5012863;28;20050;-54
2022/06/02 03:20:58;;;;;;;28.52;20.73;;;;;;;6.92;94.96;101931.25;5012279;28;20389;-55
2022/06/02 03:23:46;;;;;;;29.88;21.63;;;;;;;6.90;94.83;101940.84;5012360;28;20083;-52
2022/06/02 03:26:43;;;;;;;30.95;22.95;;;;;;;6.91;94.57;101945.28;5011945;28;20132;-51
2022/06/02 03:29:19;;;;;;;30.70;22.90;;;;;;;6.88;94.53;101941.13;5012124;28;20030;-50
2022/06/02 03:31:57;;;;;;;29.20;22.20;;;;;;;6.87;95.11;101951.28;5012332;28;20038;-51
2022/06/02 03:34:34;;;;;;;29.30;22.33;;;;;;;6.86;94.95;101948.78;5012301;28;20054;-50
2022/06/02 03:37:17;;;;;;;28.88;22.30;;;;;;;6.84;94.62;101949.06;5012338;28;20037;-54
2022/06/02 03:40:14;;;;;;;28.25;21.02;;;;;;;6.80;94.83;101949.81;5012431;28;20072;-51
2022/06/02 03:43:07;;;;;;;28.88;21.67;;;;;;;6.82;94.87;101961.38;5013118;28;20037;-52
2022/06/02 03:45:59;;;;;;;27.10;20.80;;;;;;;6.84;94.91;101962.81;5012835;28;20071;-53
2022/06/02 03:48:45;;;;;;;29.85;22.08;;;;;;;6.87;95.11;101962.28;5012350;28;20037;-53
2022/06/02 03:51:40;;;;;;;28.17;21.65;;;;;;;6.92;94.97;101963.44;5013096;28;20138;-51
2022/06/02 03:54:39;;;;;;;30.20;21.25;;;;;;;6.96;95.45;101959.94;5012492;28;20030;-54
2022/06/02 03:57:29;;;;;;;30.38;22.23;;;;;;;7.17;95.50;101962.97;5012353;28;20496;-51
2022/06/02 04:00:11;;;;;;;31.55;22.55;;;;;;;7.29;94.10;101966.41;5012646;28;20026;-53
2022/06/02 04:02:39;;;;;;;31.23;22.20;;;;;;;7.32;93.96;101965.09;5011920;28;20034;-50
2022/06/02 04:05:23;;;;;;;31.88;21.83;;;;;;;7.30;93.97;101970.00;5012436;28;20381;-49
2022/06/02 04:08:12;;;;;;;30.47;21.73;;;;;;;7.26;93.69;101975.19;5012287;28;20044;-49
2022/06/02 04:10:54;;;;;;;32.47;23.10;;;;;;;7.27;94.53;101970.50;5011776;28;20272;-51
2022/06/02 04:13:39;;;;;;;31.95;22.25;;;;;;;7.27;94.45;101974.09;5011737;28;20059;-53
2022/06/02 04:16:22;;;;;;;30.35;21.92;;;;;;;7.26;94.40;101974.34;5012063;28;20034;-52
2022/06/02 04:18:47;;;;;;;30.42;22.42;;;;;;;7.29;94.24;101976.59;5011862;28;20065;-53
2022/06/02 04:21:25;;;;;;;31.90;22.48;;;;;;;7.30;94.72;101981.84;5011552;28;20062;-50
2022/06/02 04:24:18;;;;;;;32.28;22.58;;;;;;;7.32;94.79;101985.16;5012159;28;20110;-52
2022/06/02 04:27:02;;;;;;;31.70;23.75;;;;;;;7.39;94.82;101973.97;5012345;28;20050;-52
2022/06/02 04:29:39;;;;;;;33.13;23.33;;;;;;;7.42;94.84;101986.38;5011991;28;20030;-53
2022/06/02 04:32:30;;;;;;;31.42;22.85;;;;;;;7.42;95.08;101986.38;5012028;28;20445;-52
2022/06/02 04:35:30;;;;;;;31.02;22.45;;;;;;;7.46;94.43;101984.78;5011933;28;20028;-52
2022/06/02 04:38:16;;;;;;;30.45;21.48;;;;;;;7.51;94.21;102000.53;5012322;28;20175;-52
2022/06/02 04:41:03;;;;;;;30.05;21.80;;;;;;;7.57;94.50;102002.25;5011976;28;20018;-52
2022/06/02 04:44:18;;;;;;;29.33;21.70;;;;;;;7.62;94.30;101999.56;5012010;28;20026;-51
2022/06/02 04:47:13;;;;;;;32.42;23.52;;;;;;;7.73;94.57;102003.28;5011869;28;20033;-51
2022/06/02 04:49:57;;;;;;;32.08;23.27;;;;;;;7.80;94.67;101998.38;5012392;28;20037;-53
2022/06/02 04:52:28;;;;;;;33.55;23.92;;;;;;;7.84;94.63;102006.97;5012250;28;20604;-52
2022/06/02 04:55:15;;;;;;;33.50;24.92;;;;;;;7.90;95.46;102004.00;5012225;28;20032;-52
2022/06/02 04:58:00;;;;;;;33.17;24.35;;;;;;;7.91;95.00;102000.16;5012541;28;20030;-52
2022/06/02 05:00:40;;;;;;;33.83;25.00;;;;;;;8.03;94.85;102007.44;5012181;28;20088;-51
2022/06/02 05:03:18;;;;;;;35.63;25.67;;;;;;;8.15;95.00;102019.13;5012491;28;20022;-52
2022/06/02 05:06:00;;;;;;;34.05;24.98;;;;;;;8.30;94.76;102012.09;5011920;28;20464;-50
2022/06/02 05:08:34;;;;;;;34.10;25.42;;;;;;;8.42;94.62;102009.97;5012073;28;20022;-53
2022/06/02 05:11:33;;;;;;;32.75;24.23;;;;;;;8.57;94.31;102023.09;5011897;28;20026;-53
2022/06/02 05:14:24;;;;;;;36.13;25.98;;;;;;;8.72;93.73;102017.72;5012237;28;20017;-52
2022/06/02 05:17:14;;;;;;;34.33;25.25;;;;;;;8.86;93.76;102020.84;5011711;28;20029;-52
2022/06/02 05:19:53;;;;;;;35.60;25.73;;;;;;;8.93;93.40;102012.31;5009599;28;20033;-50
2022/06/02 05:23:01;;;;;;;35.42;26.20;;;;;;;9.04;93.38;102013.22;5011627;28;20077;-51
2022/06/02 05:26:04;;;;;;;34.90;25.73;;;;;;;9.18;93.01;102017.16;5009847;28;20050;-51
2022/06/02 05:29:00;;;;;;;34.97;25.08;;;;;;;9.28;92.07;102023.84;5012214;28;20127;-52
2022/06/02 05:31:40;;;;;;;34.45;25.83;;;;;;;9.37;91.91;102019.47;5011557;28;20022;-53
2022/06/02 05:34:19;;;;;;;34.58;25.63;;;;;;;9.41;92.05;102009.53;5015158;28;20029;-50
2022/06/02 05:37:18;;;;;;;33.95;25.83;;;;;;;9.52;92.17;102015.94;5015407;28;20064;-50
2022/06/02 05:39:55;;;;;;;34.92;25.95;;;;;;;9.66;92.09;102025.41;5015290;28;20030;-53
2022/06/02 05:42:49;;;;;;;35.55;26.80;;;;;;;9.73;91.03;102013.25;5015457;28;20436;-51
2022/06/02 05:45:42;;;;;;;38.30;26.63;;;;;;;9.87;91.04;102025.44;5014064;28;20034;-51
2022/06/02 05:48:29;;;;;;;35.28;26.23;;;;;;;9.95;89.92;102027.69;5015491;28;20104;-52
2022/06/02 05:51:12;;;;;;;34.72;25.35;;;;;;;10.08;89.94;102028.25;5015782;28;20084;-51
2022/06/02 05:53:59;;;;;;;34.97;26.25;;;;;;;10.17;89.62;102018.31;5015314;28;20025;-52
2022/06/02 05:56:46;;;;;;;36.47;27.45;;;;;;;10.27;89.56;102023.84;5015295;28;20030;-53
2022/06/02 05:59:19;;;;;;;35.15;26.92;;;;;;;10.30;89.28;102020.53;5014724;28;20044;-51
2022/06/02 06:02:21;;;;;;;35.28;26.17;;;;;;;10.35;89.40;102016.09;5015130;28;20203;-54
2022/06/02 06:05:23;;;;;;;34.72;25.95;;;;;;;10.49;89.31;102028.31;5014840;28;20043;-52
2022/06/02 06:07:57;;;;;;;32.25;24.48;;;;;;;10.58;88.49;102020.31;5015262;28;20063;-50
2022/06/02 06:10:34;;;;;;;31.15;22.85;;;;;;;10.71;88.34;102030.00;5014924;28;20057;-50
2022/06/02 06:13:18;;;;;;;32.38;23.27;;;;;;;10.83;88.10;102022.22;5014678;28;20036;-53
2022/06/02 06:16:04;;;;;;;31.40;23.55;;;;;;;10.91;87.79;102035.47;5014663;28;20056;-52
2022/06/02 06:19:00;;;;;;;31.38;24.08;;;;;;;11.00;88.25;102032.16;5015110;28;20030;-49
2022/06/02 06:21:47;;;;;;;30.75;22.58;;;;;;;11.15;86.97;102042.34;5014859;28;20099;-53
2022/06/02 06:24:54;;;;;;;30.50;23.58;;;;;;;11.28;87.03;102046.50;5013172;28;20026;-51
2022/06/02 06:27:28;;;;;;;29.92;23.42;;;;;;;11.34;86.32;102053.66;4999822;28;20517;-52
2022/06/02 06:30:09;;;;;;;29.98;21.98;;;;;;;11.38;85.61;102055.59;5014872;28;20026;-53
2022/06/02 06:32:50;;;;;;;31.02;22.38;;;;;;;11.46;84.96;102064.44;5014683;28;20050;-53
2022/06/02 06:35:41;;;;;;;29.80;23.05;;;;;;;11.50;85.26;102060.00;5014619;28;20099;-53
2022/06/02 06:38:27;;;;;;;28.52;21.95;;;;;;;11.60;85.14;102062.72;4993174;28;20034;-53
2022/06/02 06:41:17;;;;;;;28.73;21.20;;;;;;;11.70;84.04;102065.47;4993321;28;20038;-51
2022/06/02 06:44:07;;;;;;;29.95;22.08;;;;;;;11.80;83.81;102070.13;4992624;28;20577;-51
2022/06/02 06:46:59;;;;;;;27.02;19.35;;;;;;;11.84;82.31;102064.84;5012295;28;20084;-52
2022/06/02 06:49:31;;;;;;;26.58;19.75;;;;;;;11.87;81.45;102072.59;5010842;28;20026;-52
2022/06/02 06:52:11;;;;;;;26.25;19.95;;;;;;;11.92;81.62;102061.47;5009334;28;20282;-51
2022/06/02 06:54:57;;;;;;;25.38;19.13;;;;;;;11.94;80.99;102077.84;5009581;28;20113;-52
2022/06/02 06:57:28;;;;;;;25.55;19.40;;;;;;;12.03;81.62;102084.47;5010649;28;20044;-49
2022/06/02 07:00:18;;;;;;;26.00;19.08;;;;;;;12.23;82.11;102074.38;5009876;28;20369;-52
2022/06/02 07:02:59;;;;;;;25.83;19.35;;;;;;;12.44;80.70;102075.88;5011296;28;20014;-52
2022/06/02 07:05:49;;;;;;;29.27;20.17;;;;;;;12.61;79.70;102083.78;5011793;28;20540;-52
2022/06/02 07:08:32;;;;;;;25.33;18.85;;;;;;;12.87;78.75;102086.34;5011884;28;20141;-53
2022/06/02 07:14:26;;;;;;;23.20;17.17;;;;;;;13.07;75.05;102090.91;5011742;28;20068;-50
2022/06/02 07:16:55;;;;;;;24.35;18.50;;;;;;;13.09;75.54;102096.16;5010164;28;20026;-52
2022/06/02 07:19:23;;;;;;;24.00;17.85;;;;;;;13.37;75.17;102097.25;5011670;28;20072;-52
2022/06/02 07:21:49;;;;;;;24.10;16.70;;;;;;;13.59;72.64;102095.13;5011490;28;20037;-51
2022/06/02 07:24:43;;;;;;;20.85;14.70;;;;;;;13.84;72.59;102107.84;5011343;28;20018;-52
2022/06/02 07:27:27;;;;;;;22.35;15.95;;;;;;;13.92;71.49;102101.66;5011421;28;20056;-51
2022/06/02 07:30:14;;;;;;;24.15;16.52;;;;;;;13.95;72.65;102100.22;5011423;28;20113;-48
2022/06/02 07:33:02;;;;;;;21.77;15.48;;;;;;;13.83;70.30;102106.22;5011252;28;20033;-51
2022/06/02 07:35:51;;;;;;;22.88;16.80;;;;;;;13.70;70.38;102114.16;5011421;28;20025;-53
2022/06/02 07:38:26;;;;;;;22.55;16.63;;;;;;;13.67;70.90;102108.34;5011285;28;20034;-52
2022/06/02 07:41:38;;;;;;;23.30;16.08;;;;;;;13.72;71.11;102111.06;5011103;28;20029;-52
2022/06/02 07:44:41;;;;;;;22.27;15.57;;;;;;;13.73;71.73;102113.56;5009582;28;20087;-49
2022/06/02 07:47:09;;;;;;;23.10;15.98;;;;;;;13.82;70.43;102118.47;5010173;28;20061;-49
2022/06/02 07:49:51;;;;;;;21.77;15.55;;;;;;;14.05;68.82;102114.00;5010098;28;20431;-50
2022/06/02 07:52:27;;;;;;;22.05;15.73;;;;;;;14.09;68.63;102112.25;5011150;28;20121;-49
2022/06/02 07:55:12;;;;;;;22.38;16.58;;;;;;;14.17;69.85;102116.34;5010797;28;20100;-48
2022/06/02 07:57:52;;;;;;;23.30;16.55;;;;;;;14.29;69.75;102119.50;5010794;28;20032;-49
2022/06/02 08:00:20;;;;;;;21.23;14.73;;;;;;;14.32;66.27;102118.88;5009157;28;20145;-53
2022/06/02 08:03:06;;;;;;;20.38;14.25;;;;;;;14.29;64.05;102116.72;5010551;28;20025;-57
2022/06/02 08:05:39;;;;;;;22.27;16.55;;;;;;;14.24;65.47;102110.41;5010872;28;20061;-55
2022/06/02 08:08:09;;;;;;;22.92;16.58;;;;;;;14.25;65.76;102110.09;5010582;28;20496;-56
2022/06/02 08:10:52;;;;;;;21.42;16.20;;;;;;;14.49;66.22;102107.22;5010890;28;20045;-56
2022/06/02 08:13:45;;;;;;;21.65;15.68;;;;;;;14.78;66.15;102106.25;5010717;28;20539;-55
2022/06/02 08:16:21;;;;;;;21.27;15.27;;;;;;;15.06;64.89;102102.72;5010827;28;20025;-58
2022/06/02 08:18:52;;;;;;;22.42;15.80;;;;;;;15.00;63.27;102107.56;5010436;28;20033;-57
2022/06/02 08:21:32;;;;;;;21.60;15.55;;;;;;;15.01;65.26;102113.94;5010722;28;20489;-56
2022/06/02 08:24:36;;;;;;;22.15;16.38;;;;;;;14.94;64.88;102112.41;5010651;28;20040;-56
2022/06/02 08:27:26;;;;;;;21.30;15.02;;;;;;;14.82;64.05;102107.31;5010619;28;20060;-55
2022/06/02 08:30:04;;;;;;;22.35;15.73;;;;;;;14.72;64.20;102103.84;5010586;28;20042;-56
2022/06/02 08:32:46;;;;;;;22.02;15.93;;;;;;;14.71;63.16;102104.97;5010535;28;20041;-55
2022/06/02 08:35:23;;;;;;;20.63;14.55;;;;;;;14.70;62.76;102114.44;5010346;28;20083;-56
2022/06/02 08:38:10;;;;;;;21.65;14.85;;;;;;;14.54;61.35;102108.28;5010667;28;20041;-55
2022/06/02 08:40:53;;;;;;;21.83;15.02;;;;;;;14.66;63.25;102106.72;5010503;28;20018;-55
2022/06/02 08:43:52;;;;;;;21.05;15.27;;;;;;;14.76;62.55;102108.50;5010402;28;20037;-55
2022/06/02 08:46:33;;;;;;;21.48;14.10;;;;;;;14.94;60.90;102109.59;5010150;28;20022;-57
2022/06/02 08:49:19;;;;;;;21.23;14.88;;;;;;;14.96;61.26;102118.50;5010422;28;20467;-56
2022/06/02 08:52:21;;;;;;;20.83;14.43;;;;;;;15.07;61.06;102121.06;5009770;28;20110;-57
2022/06/02 08:55:24;;;;;;;20.88;14.80;;;;;;;15.06;60.94;102116.66;5009291;28;20045;-56
2022/06/02 08:58:04;;;;;;;21.45;15.05;;;;;;;15.11;60.02;102120.16;5009311;28;20034;-55
2022/06/02 09:00:54;;;;;;;20.20;14.52;;;;;;;15.11;59.24;102125.72;5006013;28;20037;-55
2022/06/02 09:03:57;;;;;;;21.40;14.50;;;;;;;14.86;60.78;102128.97;5009730;28;20032;-56
2022/06/02 09:07:00;;;;;;;20.45;14.52;;;;;;;14.71;59.96;102128.09;5009940;28;20461;-56
2022/06/02 09:09:56;;;;;;;22.17;14.80;;;;;;;14.76;60.87;102129.97;5008475;28;20049;-56
2022/06/02 09:12:43;;;;;;;20.90;14.63;;;;;;;14.93;59.90;102124.66;5013920;28;20029;-56
2022/06/02 09:15:23;;;;;;;21.20;14.38;;;;;;;14.94;59.11;102123.53;5014315;28;20029;-58
2022/06/02 09:18:00;;;;;;;20.73;14.48;;;;;;;14.83;60.33;102119.25;5014021;28;20065;-56
2022/06/02 09:20:55;;;;;;;21.92;13.85;;;;;;;14.76;59.67;102122.44;5014105;28;20030;-57
2022/06/02 09:23:45;;;;;;;21.17;13.27;;;;;;;14.71;59.77;102118.91;5013604;28;20044;-57
2022/06/02 09:26:32;;;;;;;21.70;14.55;;;;;;;14.63;59.35;102114.84;5013590;28;20138;-60
2022/06/02 09:29:08;;;;;;;20.95;14.18;;;;;;;14.88;59.41;102129.50;5013843;28;20033;-57
2022/06/02 09:31:48;;;;;;;21.13;13.90;;;;;;;15.33;59.63;102117.84;5014085;28;20037;-55
2022/06/02 09:34:39;;;;;;;20.63;13.95;;;;;;;15.69;58.04;102120.75;5013831;28;20045;-58
2022/06/02 09:37:21;;;;;;;20.30;13.40;;;;;;;15.88;55.95;102111.47;4994450;28;20049;-56
2022/06/02 09:40:21;;;;;;;21.02;13.98;;;;;;;15.93;55.14;102116.94;5013332;28;20041;-54
2022/06/02 09:43:16;;;;;;;21.20;14.07;;;;;;;16.02;54.55;102108.66;5013664;28;20037;-56
2022/06/02 09:46:00;;;;;;;20.33;14.20;;;;;;;16.22;52.96;102108.19;5013456;28;20054;-58
2022/06/02 09:48:46;;;;;;;21.10;14.13;;;;;;;16.43;54.75;102106.91;5013412;28;20456;-56
2022/06/02 09:51:14;;;;;;;20.42;13.98;;;;;;;16.51;52.15;102112.56;5012710;28;20440;-56
2022/06/02 09:53:45;;;;;;;20.25;13.57;;;;;;;16.52;52.66;102105.84;5013236;28;20030;-57
2022/06/02 09:56:48;;;;;;;20.48;13.52;;;;;;;16.52;53.38;102103.03;5013192;28;20088;-57
2022/06/02 09:59:25;;;;;;;20.25;14.38;;;;;;;16.38;53.88;102099.50;5013151;28;20104;-57
2022/06/02 10:02:08;;;;;;;21.88;15.07;;;;;;;16.26;52.75;102111.19;5011715;28;20034;-54
2022/06/02 10:05:07;;;;;;;20.73;14.20;;;;;;;16.29;56.07;102101.38;5012972;28;20121;-56
2022/06/02 10:07:45;;;;;;;21.20;15.05;;;;;;;16.64;55.67;102104.44;5012994;28;20033;-57
2022/06/02 10:10:10;;;;;;;20.70;14.85;;;;;;;16.86;54.27;102111.19;5013512;28;20030;-55
2022/06/02 10:12:57;;;;;;;21.38;15.85;;;;;;;16.92;52.54;102099.53;5013158;28;20022;-56
2022/06/02 10:15:41;;;;;;;21.67;16.02;;;;;;;16.81;54.04;102109.34;5013197;28;20029;-57
2022/06/02 10:18:37;;;;;;;20.83;14.93;;;;;;;16.81;52.87;102098.16;5013032;28;20033;-57
2022/06/02 10:21:24;;;;;;;20.48;14.48;;;;;;;17.13;52.03;102104.63;5013005;28;20030;-57
2022/06/02 10:24:27;;;;;;;21.90;15.88;;;;;;;17.33;52.32;102105.22;5012905;28;20026;-55
2022/06/02 10:27:19;;;;;;;21.10;15.00;;;;;;;17.38;52.40;102105.09;5006130;28;20076;-55
2022/06/02 10:30:40;;;;;;;21.90;14.80;;;;;;;17.42;51.96;102095.75;5012073;28;20276;-56
2022/06/02 10:33:25;;;;;;;20.40;14.93;;;;;;;17.26;50.45;102097.28;5012521;28;20470;-56
2022/06/02 10:36:04;;;;;;;20.80;14.80;;;;;;;17.25;52.25;102082.50;5011791;28;20116;-57
2022/06/02 10:38:51;;;;;;;21.33;14.77;;;;;;;17.72;50.83;102095.16;5011753;28;20030;-58
2022/06/02 10:41:37;;;;;;;21.83;15.10;;;;;;;18.03;51.03;102091.50;5012306;28;20026;-57
2022/06/02 10:44:18;;;;;;;21.45;15.18;;;;;;;17.86;49.29;102079.06;5012426;28;20038;-59
2022/06/02 10:47:13;;;;;;;22.30;15.35;;;;;;;17.89;49.99;102081.22;5011839;28;20056;-56
2022/06/02 10:49:59;;;;;;;21.13;14.65;;;;;;;18.06;51.38;102082.41;5002763;28;20045;-57
2022/06/02 10:52:33;;;;;;;20.27;14.38;;;;;;;18.15;50.00;102079.63;5011919;28;20037;-58
2022/06/02 10:55:15;;;;;;;20.98;14.95;;;;;;;18.10;49.45;102083.44;5011847;28;20052;-56
2022/06/02 10:57:59;;;;;;;22.83;15.70;;;;;;;17.99;50.38;102077.31;4991928;28;20324;-58
2022/06/02 11:00:37;;;;;;;22.17;15.52;;;;;;;17.83;48.42;102074.13;4990624;28;20053;-57
2022/06/02 11:03:41;;;;;;;22.67;15.77;;;;;;;17.55;49.15;102081.94;4992053;28;20035;-56
2022/06/02 11:06:25;;;;;;;23.35;16.52;;;;;;;17.33;49.85;102072.50;4992156;28;20022;-56
2022/06/02 11:09:16;;;;;;;21.73;15.65;;;;;;;17.58;50.38;102070.13;4991934;28;20034;-57
2022/06/02 11:12:21;;;;;;;22.67;15.85;;;;;;;17.73;49.12;102071.63;4992032;28;20046;-56
2022/06/02 11:15:11;;;;;;;21.38;14.52;;;;;;;17.40;48.69;102069.22;4991667;28;20080;-56
2022/06/02 11:17:36;;;;;;;21.58;14.32;;;;;;;17.34;48.28;102062.13;4991935;28;20034;-56
2022/06/02 11:20:39;;;;;;;21.13;14.83;;;;;;;17.65;50.11;102064.06;4991770;28;20034;-55
2022/06/02 11:23:10;;;;;;;21.48;14.07;;;;;;;18.02;47.18;102065.44;4991078;28;20299;-56
2022/06/02 11:25:56;;;;;;;20.23;13.80;;;;;;;18.17;47.82;102055.75;4990377;28;20050;-56
2022/06/02 11:28:46;;;;;;;20.27;13.93;;;;;;;18.30;47.80;102062.34;4991016;28;20031;-57
2022/06/02 11:31:24;;;;;;;20.88;14.10;;;;;;;18.56;46.28;102053.13;4991444;28;20030;-57
2022/06/02 11:34:13;;;;;;;20.20;13.98;;;;;;;18.96;46.22;102052.06;4992865;28;20030;-55
2022/06/02 11:36:54;;;;;;;19.92;13.60;;;;;;;19.47;45.97;102052.19;4992397;28;20030;-56
2022/06/02 11:39:54;;;;;;;22.30;14.75;;;;;;;19.75;43.27;102055.31;4992829;28;20099;-59
2022/06/02 11:42:41;;;;;;;19.90;13.88;;;;;;;19.70;43.34;102049.91;4991978;28;20084;-56
2022/06/02 11:45:35;;;;;;;20.52;13.65;;;;;;;19.97;44.40;102047.75;4992716;28;20038;-57
2022/06/02 11:48:12;;;;;;;20.45;13.77;;;;;;;20.14;42.90;102051.59;4992554;28;20185;-57
2022/06/02 11:50:50;;;;;;;21.50;15.02;;;;;;;20.24;40.38;102051.19;4992393;28;20030;-58
2022/06/02 11:53:41;;;;;;;18.90;12.77;;;;;;;20.10;41.12;102043.88;4991402;28;20049;-56
2022/06/02 11:56:44;;;;;;;19.08;11.70;;;;;;;20.13;42.48;102050.78;4990980;28;20030;-56
2022/06/02 11:59:39;;;;;;;19.75;12.95;;;;;;;20.02;39.12;102044.78;4991125;28;20033;-55
2022/06/02 12:02:25;;;;;;;19.20;12.32;;;;;;;20.04;41.29;102050.03;4982866;28;20078;-57
2022/06/02 12:05:27;;;;;;;19.20;13.00;;;;;;;19.79;41.15;102035.78;4991223;28;20034;-56
2022/06/02 12:08:23;;;;;;;19.25;12.20;;;;;;;19.93;39.86;102039.19;4991247;28;20049;-57
2022/06/02 12:11:10;;;;;;;19.02;12.30;;;;;;;20.15;37.57;102036.38;4983212;28;20046;-57
2022/06/02 12:13:49;;;;;;;18.58;12.07;;;;;;;20.49;38.71;102032.44;5001265;28;20084;-55
2022/06/02 12:16:34;;;;;;;18.50;12.40;;;;;;;20.72;39.50;102029.25;5010677;28;20333;-57
2022/06/02 12:19:25;;;;;;;18.50;12.82;;;;;;;20.64;39.06;102028.16;5010422;28;20133;-56
2022/06/02 12:22:45;;;;;;;21.10;14.43;;;;;;;20.60;41.19;102015.97;5010255;28;20109;-56
2022/06/02 12:25:31;;;;;;;19.65;14.15;;;;;;;20.40;40.21;102017.66;5009353;28;20033;-56
2022/06/02 12:28:05;;;;;;;22.15;14.52;;;;;;;20.19;40.97;102007.25;5009823;28;20032;-57
2022/06/02 12:30:52;;;;;;;20.95;14.15;;;;;;;20.32;41.22;102008.13;5008206;28;20121;-56
2022/06/02 12:33:26;;;;;;;20.10;14.32;;;;;;;20.53;40.17;102010.91;5010197;28;20026;-56
2022/06/02 12:36:00;;;;;;;19.67;13.38;;;;;;;20.74;39.76;102010.03;5010107;28;20037;-56
2022/06/02 12:38:44;;;;;;;19.45;13.68;;;;;;;20.91;40.18;101999.78;5009900;28;20033;-55
2022/06/02 12:41:27;;;;;;;;;;;;;;;20.96;37.89;101997.56;5010139;28;20404;-56